Time;durP1;ratioP1;P1;durP2;ratioP2;P2;SDS_P1;SDS_P2;PMS_P1;PMS_P2;Temp;Humidity;BMP_temperature;BMP_pressure;BME280_temperature;BME280_humidity;BME280_pressure;Samples;Min_cycle;Max_cycle;Signal;HPM_P1;HPM_P2
2023/03/13 00:00:09;;;;;;;;;;;;;;;;;;2063309;28;19909;-87
2023/03/13 00:01:11;;;;;;;;;;;;;;;;;;2055587;28;20014;-87
2023/03/13 00:02:12;;;;;;;;;;;;;;;;;;2061446;28;19933;-88
2023/03/13 00:03:12;;;;;;;;;;;;;;;;;;2074014;28;19913;-88
2023/03/13 00:04:12;;;;;;;;;;;;;;;;;;2066389;28;19922;-88
2023/03/13 00:05:13;;;;;;;;;;;;;;;;;;2052136;28;19977;-88
2023/03/13 00:06:13;;;;;;;;;;;;;;;;;;2064517;28;19980;-88
2023/03/13 00:07:14;;;;;;;;;;;;;;;;;;2059893;28;20376;-87
2023/03/13 00:08:15;;;;;;;;;;;;;;;;;;2055871;28;19910;-88
2023/03/13 00:09:16;;;;;;;;;;;;;;;;;;2055518;28;20012;-88
2023/03/13 00:10:16;;;;;;;;;;;;;;;;;;2063697;28;19909;-87
2023/03/13 00:11:16;;;;;;;;;;;;;;;;;;2055360;28;20357;-88
2023/03/13 00:12:16;;;;;;;;;;;;;;;;;;2055598;28;19969;-86
2023/03/13 00:13:17;;;;;;;;;;;;;;;;;;2056115;28;19914;-88
2023/03/13 00:14:17;;;;;;;;;;;;;;;;;;2063259;28;19939;-88
2023/03/13 00:15:17;;;;;;;;;;;;;;;;;;2063420;28;19913;-88
2023/03/13 00:16:17;;;;;;;;;;;;;;;;;;2056129;28;20443;-88
2023/03/13 00:17:18;;;;;;;;;;;;;;;;;;2056090;28;19925;-87
2023/03/13 00:18:18;;;;;;;;;;;;;;;;;;2055980;28;19925;-88
2023/03/13 00:19:18;;;;;;;;;;;;;;;;;;2055184;28;19914;-87
2023/03/13 00:20:18;;;;;;;;;;;;;;;;;;1697871;28;10423625;-87
2023/03/13 00:21:20;;;;;;;;;;;;;;;;;;2055966;28;19925;-88
2023/03/13 00:22:20;;;;;;;;;;;;;;;;;;2066505;28;19910;-87
2023/03/13 00:23:20;;;;;;;;;;;;;;;;;;2074008;28;19969;-87
2023/03/13 00:24:20;;;;;;;;;;;;;;;;;;2066332;28;19914;-87
2023/03/13 00:25:21;;;;;;;;;;;;;;;;;;2065147;28;19914;-88
2023/03/13 00:26:22;;;;;;;;;;;;;;;;;;2060320;28;19909;-86
2023/03/13 00:27:22;;;;;;;;;;;;;;;;;;2059444;28;20284;-88
2023/03/13 00:28:22;;;;;;;;;;;;;;;;;;2055740;28;19914;-87
2023/03/13 00:29:23;;;;;;;;;;;;;;;;;;2056163;28;19909;-87
2023/03/13 00:30:23;;;;;;;;;;;;;;;;;;2063223;28;19916;-87
2023/03/13 00:31:24;;;;;;;;;;;;;;;;;;2063412;28;20348;-87
2023/03/13 00:32:25;;;;;;;;;;;;;;;;;;2063217;28;20435;-87
2023/03/13 00:33:25;;;;;;;;;;;;;;;;;;2063260;28;19964;-87
2023/03/13 00:34:26;;;;;;;;;;;;;;;;;;2055889;28;20320;-87
2023/03/13 00:35:26;;;;;;;;;;;;;;;;;;2055180;28;19920;-87
2023/03/13 00:36:28;;;;;;;;;;;;;;;;;;2055216;28;20013;-86
2023/03/13 00:37:30;;;;;;;;;;;;;;;;;;2054985;28;19933;-86
2023/03/13 00:38:31;;;;;;;;;;;;;;;;;;2055082;28;19910;-87
2023/03/13 00:39:31;;;;;;;;;;;;;;;;;;1703924;28;10241579;-86
2023/03/13 00:40:31;;;;;;;;;;;;;;;;;;2054924;28;19910;-86
2023/03/13 00:41:32;;;;;;;;;;;;;;;;;;2055107;28;19996;-86
2023/03/13 00:42:32;;;;;;;;;;;;;;;;;;2062793;28;20277;-86
2023/03/13 00:43:33;;;;;;;;;;;;;;;;;;2055015;28;20018;-87
2023/03/13 00:44:33;;;;;;;;;;;;;;;;;;2055063;28;19914;-87
2023/03/13 00:45:33;;;;;;;;;;;;;;;;;;2054914;28;20471;-87
2023/03/13 00:46:34;;;;;;;;;;;;;;;;;;2055135;28;19980;-86
2023/03/13 00:47:34;;;;;;;;;;;;;;;;;;2055677;28;19945;-87
2023/03/13 00:48:35;;;;;;;;;;;;;;;;;;2055014;28;20000;-87
2023/03/13 00:49:35;;;;;;;;;;;;;;;;;;2055026;28;19945;-87
2023/03/13 00:50:36;;;;;;;;;;;;;;;;;;2055832;28;20388;-87
2023/03/13 00:51:36;;;;;;;;;;;;;;;;;;2055591;28;19914;-85
2023/03/13 00:52:36;;;;;;;;;;;;;;;;;;2055752;28;19936;-86
2023/03/13 00:53:37;;;;;;;;;;;;;;;;;;2055654;28;20435;-86
2023/03/13 00:54:38;;;;;;;;;;;;;;;;;;2055680;28;19999;-87
2023/03/13 00:55:38;;;;;;;;;;;;;;;;;;2054982;28;19917;-86
2023/03/13 00:56:38;;;;;;;;;;;;;;;;;;2047086;28;19914;-86
2023/03/13 00:57:39;;;;;;;;;;;;;;;;;;2054732;28;19914;-86
2023/03/13 00:58:40;;;;;;;;;;;;;;;;;;1698708;28;10389688;-86
2023/03/13 00:59:40;;;;;;;;;;;;;;;;;;2055801;28;19910;-86
2023/03/13 01:00:40;;;;;;;;;;;;;;;;;;2055640;28;19983;-87
2023/03/13 01:01:41;;;;;;;;;;;;;;;;;;2055823;28;19997;-86
2023/03/13 01:02:42;;;;;;;;;;;;;;;;;;2056068;28;19910;-87
2023/03/13 01:03:43;;;;;;;;;;;;;;;;;;2055781;28;20570;-87
2023/03/13 01:04:44;;;;;;;;;;;;;;;;;;2055515;28;20345;-88
2023/03/13 01:05:44;;;;;;;;;;;;;;;;;;2057247;28;19956;-94
2023/03/13 01:06:44;;;;;;;;;;;;;;;;;;2065453;28;19940;-95
2023/03/13 01:07:45;;;;;;;;;;;;;;;;;;2056905;28;20462;-96
2023/03/13 01:08:45;;;;;;;;;;;;;;;;;;2049326;29;19910;-94
2023/03/13 01:09:46;;;;;;;;;;;;;;;;;;2049150;28;19933;-95
2023/03/13 01:10:46;;;;;;;;;;;;;;;;;;2049144;28;19910;-93
2023/03/13 01:11:46;;;;;;;;;;;;;;;;;;2049191;29;19910;-95
2023/03/13 01:12:46;;;;;;;;;;;;;;;;;;2057102;28;20391;-94
2023/03/13 01:13:47;;;;;;;;;;;;;;;;;;2066149;28;19961;-94
2023/03/13 01:14:49;;;;;;;;;;;;;;;;;;2057663;28;20341;-93
2023/03/13 01:15:49;;;;;;;;;;;;;;;;;;2057158;28;19921;-94
2023/03/13 01:16:49;;;;;;;;;;;;;;;;;;2057031;28;19989;-94
2023/03/13 01:17:49;;;;;;;;;;;;;;;;;;2057258;28;19917;-93
2023/03/13 01:18:52;;;;;;;;;;;;;;;;;;1711656;28;10002600;-95
2023/03/13 01:19:56;;;;;;;;;;;;;;;;;;2066583;28;19917;-95
2023/03/13 01:20:57;;;;;;;;;;;;;;;;;;2067886;28;19918;-96
2023/03/13 01:21:57;;;;;;;;;;;;;;;;;;2058137;28;19909;-96
2023/03/13 01:22:57;;;;;;;;;;;;;;;;;;2050245;29;19957;-96
2023/03/13 01:23:58;;;;;;;;;;;;;;;;;;2057533;28;19968;-96
2023/03/13 01:24:59;;;;;;;;;;;;;;;;;;2058662;28;20024;-96
2023/03/13 01:25:59;;;;;;;;;;;;;;;;;;2054899;28;19941;-87
2023/03/13 01:27:00;;;;;;;;;;;;;;;;;;2055695;28;20030;-87
2023/03/13 01:28:00;;;;;;;;;;;;;;;;;;2054779;28;20464;-87
2023/03/13 01:29:00;;;;;;;;;;;;;;;;;;2054551;28;19984;-87
2023/03/13 01:30:00;;;;;;;;;;;;;;;;;;2054712;28;19914;-87
2023/03/13 01:31:09;;;;;;;;;;;;;;;;;;2062596;28;20318;-87
2023/03/13 01:32:09;;;;;;;;;;;;;;;;;;2061948;28;20071;-87
2023/03/13 01:33:09;;;;;;;;;;;;;;;;;;2055560;28;20660;-87
2023/03/13 01:34:10;;;;;;;;;;;;;;;;;;2054732;28;19910;-87
2023/03/13 01:35:10;;;;;;;;;;;;;;;;;;2054780;28;20000;-87
2023/03/13 01:36:11;;;;;;;;;;;;;;;;;;2055416;28;20393;-87
2023/03/13 01:37:11;;;;;;;;;;;;;;;;;;2055334;28;19968;-87
2023/03/13 01:38:11;;;;;;;;;;;;;;;;;;2062637;28;20305;-87
2023/03/13 01:39:12;;;;;;;;;;;;;;;;;;2062903;28;20017;-87
2023/03/13 01:40:12;;;;;;;;;;;;;;;;;;2054652;28;20272;-87
2023/03/13 01:41:12;;;;;;;;;;;;;;;;;;2054645;28;19910;-87
2023/03/13 01:42:13;;;;;;;;;;;;;;;;;;2054700;28;20354;-86
2023/03/13 01:43:22;;;;;;;;;;;;;;;;;;2054692;28;19932;-86
2023/03/13 01:44:24;;;;;;;;;;;;;;;;;;2054705;28;20004;-87
2023/03/13 01:45:43;;;;;;;;;;;;;;;;;;2062581;28;19944;-87
2023/03/13 01:46:43;;;;;;;;;;;;;;;;;;2060510;28;20435;-87
2023/03/13 01:47:43;;;;;;;;;;;;;;;;;;2055244;28;19910;-86
2023/03/13 01:48:48;;;;;;;;;;;;;;;;;;2055333;28;20407;-86
2023/03/13 01:49:49;;;;;;;;;;;;;;;;;;2055214;28;20009;-86
2023/03/13 01:50:50;;;;;;;;;;;;;;;;;;2055220;28;19976;-86
2023/03/13 01:51:59;;;;;;;;;;;;;;;;;;2055380;28;19931;-86
2023/03/13 01:52:59;;;;;;;;;;;;;;;;;;2055201;28;20417;-86
2023/03/13 01:54:09;;;;;;;;;;;;;;;;;;2054530;28;19910;-86
2023/03/13 01:55:11;;;;;;;;;;;;;;;;;;2054588;28;20004;-86
2023/03/13 01:56:19;;;;;;;;;;;;;;;;;;2062397;28;19910;-86
2023/03/13 01:57:22;;;;;;;;;;;;;;;;;;2054457;28;19950;-86
2023/03/13 01:58:22;;;;;;;;;;;;;;;;;;2046547;28;19918;-86
2023/03/13 01:59:25;;;;;;;;;;;;;;;;;;2054490;28;19996;-86
2023/03/13 02:00:28;;;;;;;;;;;;;;;;;;2055171;28;19921;-86
2023/03/13 02:01:28;;;;;;;;;;;;;;;;;;2062365;28;20289;-86
2023/03/13 02:02:29;;;;;;;;;;;;;;;;;;2054423;28;20363;-86
2023/03/13 02:03:29;;;;;;;;;;;;;;;;;;2046651;29;20001;-86
2023/03/13 02:04:33;;;;;;;;;;;;;;;;;;2054374;28;20385;-86
2023/03/13 02:05:34;;;;;;;;;;;;;;;;;;2054619;28;20004;-86
2023/03/13 02:06:39;;;;;;;;;;;;;;;;;;2055269;28;19965;-86
2023/03/13 02:07:47;;;;;;;;;;;;;;;;;;2065112;28;20373;-95
2023/03/13 02:08:51;;;;;;;;;;;;;;;;;;1710849;28;10090971;-95
2023/03/13 02:09:53;;;;;;;;;;;;;;;;;;2057401;28;19914;-95
2023/03/13 02:10:56;;;;;;;;;;;;;;;;;;2058027;28;19928;-94
2023/03/13 02:11:56;;;;;;;;;;;;;;;;;;2034562;28;20479;-85
2023/03/13 02:12:58;;;;;;;;;;;;;;;;;;2059547;28;20021;-86
2023/03/13 02:13:59;;;;;;;;;;;;;;;;;;2055444;28;19926;-86
2023/03/13 02:15:00;;;;;;;;;;;;;;;;;;2055586;28;20337;-86
2023/03/13 02:16:01;;;;;;;;;;;;;;;;;;2055767;28;19984;-87
2023/03/13 02:17:02;;;;;;;;;;;;;;;;;;2054759;28;19910;-87
2023/03/13 02:18:02;;;;;;;;;;;;;;;;;;2046873;28;19917;-87
2023/03/13 02:19:06;;;;;;;;;;;;;;;;;;2054760;28;20353;-86
2023/03/13 02:20:07;;;;;;;;;;;;;;;;;;2055476;28;19916;-86
2023/03/13 02:21:10;;;;;;;;;;;;;;;;;;2054531;28;19936;-86
2023/03/13 02:22:15;;;;;;;;;;;;;;;;;;2054566;28;20001;-87
2023/03/13 02:23:25;;;;;;;;;;;;;;;;;;2055389;28;19914;-86
2023/03/13 02:24:31;;;;;;;;;;;;;;;;;;2070704;28;20380;-87
2023/03/13 02:25:53;;;;;;;;;;;;;;;;;;2061845;28;19910;-87
2023/03/13 02:26:53;;;;;;;;;;;;;;;;;;2054563;28;19921;-87
2023/03/13 02:27:56;;;;;;;;;;;;;;;;;;2055288;28;19910;-88
2023/03/13 02:28:56;;;;;;;;;;;;;;;;;;2055196;28;19914;-87
2023/03/13 02:29:57;;;;;;;;;;;;;;;;;;2055062;28;20707;-87
2023/03/13 02:30:58;;;;;;;;;;;;;;;;;;1699351;28;10356006;-87
2023/03/13 02:31:58;;;;;;;;;;;;;;;;;;2054721;28;19914;-87
2023/03/13 02:32:59;;;;;;;;;;;;;;;;;;2054742;28;20119;-87
2023/03/13 02:34:00;;;;;;;;;;;;;;;;;;2055408;28;19917;-87
2023/03/13 02:35:03;;;;;;;;;;;;;;;;;;2055406;28;20262;-87
2023/03/13 02:36:04;;;;;;;;;;;;;;;;;;2055255;28;19910;-87
2023/03/13 02:37:05;;;;;;;;;;;;;;;;;;2054576;28;20044;-88
2023/03/13 02:38:07;;;;;;;;;;;;;;;;;;2046445;28;20057;-87
2023/03/13 02:39:08;;;;;;;;;;;;;;;;;;2054597;28;20086;-88
2023/03/13 02:40:10;;;;;;;;;;;;;;;;;;2054533;28;19914;-87
2023/03/13 02:41:12;;;;;;;;;;;;;;;;;;2047439;28;19911;-87
2023/03/13 02:42:16;;;;;;;;;;;;;;;;;;2073556;28;19922;-87
2023/03/13 02:43:29;;;;;;;;;;;;;;;;;;1725234;28;10047928;-86
2023/03/13 02:44:29;;;;;;;;;;;;;;;;;;2055622;28;20445;-87
2023/03/13 02:45:30;;;;;;;;;;;;;;;;;;1708940;28;10002823;-87
2023/03/13 02:46:31;;;;;;;;;;;;;;;;;;2055548;28;19910;-88
2023/03/13 02:47:31;;;;;;;;;;;;;;;;;;2063017;28;20013;-86
2023/03/13 02:48:36;;;;;;;;;;;;;;;;;;2062781;28;19932;-87
2023/03/13 02:49:37;;;;;;;;;;;;;;;;;;2055198;28;19910;-88
2023/03/13 02:50:37;;;;;;;;;;;;;;;;;;2055208;28;20004;-86
2023/03/13 02:51:40;;;;;;;;;;;;;;;;;;2054376;28;20024;-88
2023/03/13 02:52:45;;;;;;;;;;;;;;;;;;2054506;28;19945;-87
2023/03/13 02:53:48;;;;;;;;;;;;;;;;;;2055380;28;19921;-88
2023/03/13 02:54:49;;;;;;;;;;;;;;;;;;2070728;28;20271;-88
2023/03/13 02:55:50;;;;;;;;;;;;;;;;;;2062871;28;19949;-87
2023/03/13 02:56:52;;;;;;;;;;;;;;;;;;2054526;28;20337;-87
2023/03/13 02:57:52;;;;;;;;;;;;;;;;;;2054503;28;19934;-88
2023/03/13 02:58:53;;;;;;;;;;;;;;;;;;2055305;28;19917;-87
2023/03/13 02:59:53;;;;;;;;;;;;;;;;;;2055357;28;19910;-87
2023/03/13 03:00:53;;;;;;;;;;;;;;;;;;2060123;28;20503;-88
2023/03/13 03:01:53;;;;;;;;;;;;;;;;;;2065393;28;19922;-88
2023/03/13 03:02:54;;;;;;;;;;;;;;;;;;2065002;28;19932;-88
2023/03/13 03:03:55;;;;;;;;;;;;;;;;;;2052770;28;19950;-88
2023/03/13 03:04:55;;;;;;;;;;;;;;;;;;2067600;28;19941;-86
2023/03/13 03:05:55;;;;;;;;;;;;;;;;;;2064171;28;20393;-88
2023/03/13 03:06:55;;;;;;;;;;;;;;;;;;2055706;28;20114;-88
2023/03/13 03:07:57;;;;;;;;;;;;;;;;;;2055759;28;19928;-87
2023/03/13 03:08:57;;;;;;;;;;;;;;;;;;2054417;28;20367;-87
2023/03/13 03:09:58;;;;;;;;;;;;;;;;;;2054404;28;19914;-88
2023/03/13 03:10:58;;;;;;;;;;;;;;;;;;2070506;28;19913;-87
2023/03/13 03:11:58;;;;;;;;;;;;;;;;;;2070724;28;19957;-88
2023/03/13 03:12:58;;;;;;;;;;;;;;;;;;2055325;28;19914;-87
2023/03/13 03:13:59;;;;;;;;;;;;;;;;;;2055098;28;19921;-87
2023/03/13 03:14:59;;;;;;;;;;;;;;;;;;2055272;28;20366;-87
2023/03/13 03:16:04;;;;;;;;;;;;;;;;;;2054385;28;19937;-86
2023/03/13 03:17:04;;;;;;;;;;;;;;;;;;2054764;28;19910;-87
2023/03/13 03:18:04;;;;;;;;;;;;;;;;;;2054693;28;19921;-87
2023/03/13 03:19:05;;;;;;;;;;;;;;;;;;1364156;28;10233173;-87
2023/03/13 03:20:10;;;;;;;;;;;;;;;;;;2062338;28;20389;-87
2023/03/13 03:21:11;;;;;;;;;;;;;;;;;;2060144;28;20475;-88
2023/03/13 03:22:11;;;;;;;;;;;;;;;;;;2054297;28;20011;-85
2023/03/13 03:23:12;;;;;;;;;;;;;;;;;;2054394;28;20373;-87
2023/03/13 03:24:12;;;;;;;;;;;;;;;;;;2055053;28;20408;-87
2023/03/13 03:25:12;;;;;;;;;;;;;;;;;;2055128;28;19945;-87
2023/03/13 03:26:13;;;;;;;;;;;;;;;;;;2054919;28;20409;-85
2023/03/13 03:27:13;;;;;;;;;;;;;;;;;;2055251;28;19965;-86
2023/03/13 03:28:13;;;;;;;;;;;;;;;;;;2054900;28;20004;-87
2023/03/13 03:29:13;;;;;;;;;;;;;;;;;;2054491;28;20412;-85
2023/03/13 03:30:14;;;;;;;;;;;;;;;;;;2055031;28;19914;-87
2023/03/13 03:31:15;;;;;;;;;;;;;;;;;;2055310;28;20242;-86
2023/03/13 03:32:15;;;;;;;;;;;;;;;;;;2054278;28;20021;-86
2023/03/13 03:33:15;;;;;;;;;;;;;;;;;;2046172;28;20382;-87
2023/03/13 03:34:16;;;;;;;;;;;;;;;;;;2054298;28;19949;-87
2023/03/13 03:35:16;;;;;;;;;;;;;;;;;;2055025;28;19910;-87
2023/03/13 03:36:18;;;;;;;;;;;;;;;;;;2054089;28;20052;-86
2023/03/13 03:37:18;;;;;;;;;;;;;;;;;;2054399;28;19914;-86
2023/03/13 03:38:18;;;;;;;;;;;;;;;;;;2054887;28;20444;-86
2023/03/13 03:39:18;;;;;;;;;;;;;;;;;;2055046;28;20009;-86
2023/03/13 03:40:20;;;;;;;;;;;;;;;;;;2054838;28;19921;-87
2023/03/13 03:41:20;;;;;;;;;;;;;;;;;;2055277;28;19910;-87
2023/03/13 03:42:20;;;;;;;;;;;;;;;;;;2055059;28;20424;-87
2023/03/13 03:43:21;;;;;;;;;;;;;;;;;;2055664;28;20349;-87
2023/03/13 03:44:21;;;;;;;;;;;;;;;;;;2055822;28;20155;-86
2023/03/13 03:45:21;;;;;;;;;;;;;;;;;;2055646;28;20333;-86
2023/03/13 03:46:21;;;;;;;;;;;;;;;;;;2055812;28;19910;-86
2023/03/13 03:47:22;;;;;;;;;;;;;;;;;;2063710;28;19913;-86
2023/03/13 03:48:22;;;;;;;;;;;;;;;;;;2055683;28;19981;-86
2023/03/13 03:49:22;;;;;;;;;;;;;;;;;;2055605;28;19910;-86
2023/03/13 03:50:22;;;;;;;;;;;;;;;;;;2055748;28;19917;-86
2023/03/13 03:51:23;;;;;;;;;;;;;;;;;;2055727;28;19985;-86
2023/03/13 03:52:23;;;;;;;;;;;;;;;;;;2056424;28;19914;-86
2023/03/13 03:53:23;;;;;;;;;;;;;;;;;;2056396;28;19916;-86
2023/03/13 03:54:24;;;;;;;;;;;;;;;;;;2056674;28;20290;-86
2023/03/13 03:55:24;;;;;;;;;;;;;;;;;;2056346;28;20389;-86
2023/03/13 03:56:24;;;;;;;;;;;;;;;;;;2055531;28;19910;-86
2023/03/13 03:57:24;;;;;;;;;;;;;;;;;;2057377;28;20027;-83
2023/03/13 03:58:25;;;;;;;;;;;;;;;;;;2061126;28;20440;-85
2023/03/13 03:59:25;;;;;;;;;;;;;;;;;;2056501;28;20282;-85
2023/03/13 04:00:26;;;;;;;;;;;;;;;;;;2056587;28;19929;-88
2023/03/13 04:01:26;;;;;;;;;;;;;;;;;;2055976;28;19910;-87
2023/03/13 04:02:27;;;;;;;;;;;;;;;;;;2047877;29;20001;-86
2023/03/13 04:03:27;;;;;;;;;;;;;;;;;;2055609;28;19921;-86
2023/03/13 04:04:27;;;;;;;;;;;;;;;;;;2071720;28;20284;-86
2023/03/13 04:05:28;;;;;;;;;;;;;;;;;;2071693;28;19932;-86
2023/03/13 04:06:29;;;;;;;;;;;;;;;;;;2056391;28;20057;-87
2023/03/13 04:07:29;;;;;;;;;;;;;;;;;;2055591;28;19914;-86
2023/03/13 04:08:30;;;;;;;;;;;;;;;;;;2055636;28;19916;-86
2023/03/13 04:09:32;;;;;;;;;;;;;;;;;;2056333;28;19910;-86
2023/03/13 04:10:32;;;;;;;;;;;;;;;;;;2056121;28;20416;-86
2023/03/13 04:11:32;;;;;;;;;;;;;;;;;;2056169;28;19910;-86
2023/03/13 04:12:33;;;;;;;;;;;;;;;;;;2056176;28;20368;-87
2023/03/13 04:13:33;;;;;;;;;;;;;;;;;;2056151;28;19913;-86
2023/03/13 04:14:33;;;;;;;;;;;;;;;;;;2056027;28;19917;-87
2023/03/13 04:15:33;;;;;;;;;;;;;;;;;;2055447;28;19910;-87
2023/03/13 04:16:34;;;;;;;;;;;;;;;;;;2055431;28;20316;-87
2023/03/13 04:17:34;;;;;;;;;;;;;;;;;;2063258;28;20016;-87
2023/03/13 04:18:35;;;;;;;;;;;;;;;;;;2071300;28;19909;-87
2023/03/13 04:19:35;;;;;;;;;;;;;;;;;;1708104;28;10396063;-87
2023/03/13 04:20:35;;;;;;;;;;;;;;;;;;2055315;28;19910;-86
2023/03/13 04:21:36;;;;;;;;;;;;;;;;;;2055346;28;19911;-87
2023/03/13 04:22:37;;;;;;;;;;;;;;;;;;2056161;28;20420;-87
2023/03/13 04:23:37;;;;;;;;;;;;;;;;;;2056194;28;19914;-86
2023/03/13 04:24:37;;;;;;;;;;;;;;;;;;2055928;28;19988;-87
2023/03/13 04:25:38;;;;;;;;;;;;;;;;;;2055912;28;19910;-87
2023/03/13 04:26:38;;;;;;;;;;;;;;;;;;2054988;28;20298;-88
2023/03/13 04:27:38;;;;;;;;;;;;;;;;;;2055212;28;19918;-87
2023/03/13 04:28:38;;;;;;;;;;;;;;;;;;2055077;28;20063;-87
2023/03/13 04:29:39;;;;;;;;;;;;;;;;;;2055286;28;20239;-87
2023/03/13 04:30:39;;;;;;;;;;;;;;;;;;2055952;28;19914;-87
2023/03/13 04:31:39;;;;;;;;;;;;;;;;;;2071316;28;20135;-86
2023/03/13 04:32:40;;;;;;;;;;;;;;;;;;2063091;28;20381;-85
2023/03/13 04:33:40;;;;;;;;;;;;;;;;;;2049093;28;19914;-87
2023/03/13 04:34:40;;;;;;;;;;;;;;;;;;2055281;28;19961;-88
2023/03/13 04:35:40;;;;;;;;;;;;;;;;;;2056091;28;19961;-86
2023/03/13 04:36:41;;;;;;;;;;;;;;;;;;2046138;28;20329;-87
2023/03/13 04:37:41;;;;;;;;;;;;;;;;;;2055789;28;19968;-87
2023/03/13 04:38:41;;;;;;;;;;;;;;;;;;2055948;28;20322;-86
2023/03/13 04:39:41;;;;;;;;;;;;;;;;;;2055219;28;20000;-86
2023/03/13 04:40:42;;;;;;;;;;;;;;;;;;2047263;29;20009;-86
2023/03/13 04:41:42;;;;;;;;;;;;;;;;;;2055145;28;20352;-85
2023/03/13 04:42:42;;;;;;;;;;;;;;;;;;1704404;28;10245723;-87
2023/03/13 04:43:43;;;;;;;;;;;;;;;;;;1699782;28;10370258;-86
2023/03/13 04:44:43;;;;;;;;;;;;;;;;;;2055113;28;19913;-87
2023/03/13 04:45:43;;;;;;;;;;;;;;;;;;2055771;28;19937;-88
2023/03/13 04:46:43;;;;;;;;;;;;;;;;;;2056010;28;20297;-87
2023/03/13 04:47:45;;;;;;;;;;;;;;;;;;2055141;28;19914;-84
2023/03/13 04:48:45;;;;;;;;;;;;;;;;;;2055402;28;20330;-86
2023/03/13 04:49:45;;;;;;;;;;;;;;;;;;2057152;28;19980;-85
2023/03/13 04:50:47;;;;;;;;;;;;;;;;;;2058340;28;20149;-86
2023/03/13 04:51:47;;;;;;;;;;;;;;;;;;2055258;28;20301;-87
2023/03/13 04:52:47;;;;;;;;;;;;;;;;;;2055108;28;19937;-86
2023/03/13 04:53:48;;;;;;;;;;;;;;;;;;2055158;28;19940;-87
2023/03/13 04:54:49;;;;;;;;;;;;;;;;;;2055785;28;19922;-87
2023/03/13 04:55:50;;;;;;;;;;;;;;;;;;2055728;28;19925;-86
2023/03/13 04:56:50;;;;;;;;;;;;;;;;;;2055803;28;19914;-85
2023/03/13 04:57:50;;;;;;;;;;;;;;;;;;2055106;28;19920;-85
2023/03/13 04:58:51;;;;;;;;;;;;;;;;;;2063166;28;19909;-85
2023/03/13 04:59:51;;;;;;;;;;;;;;;;;;2063195;28;20313;-85
2023/03/13 05:00:52;;;;;;;;;;;;;;;;;;2055192;28;20345;-86
2023/03/13 05:01:52;;;;;;;;;;;;;;;;;;2055844;28;19961;-87
2023/03/13 05:02:52;;;;;;;;;;;;;;;;;;2054936;28;19920;-87
2023/03/13 05:03:53;;;;;;;;;;;;;;;;;;2055056;28;20055;-87
2023/03/13 05:04:53;;;;;;;;;;;;;;;;;;2054914;28;19928;-86
2023/03/13 05:05:53;;;;;;;;;;;;;;;;;;2054930;28;19910;-87
2023/03/13 05:06:53;;;;;;;;;;;;;;;;;;2055690;28;19910;-86
2023/03/13 05:07:54;;;;;;;;;;;;;;;;;;2055617;28;20005;-87
2023/03/13 05:08:54;;;;;;;;;;;;;;;;;;2054934;28;19910;-87
2023/03/13 05:09:54;;;;;;;;;;;;;;;;;;2054753;28;19976;-86
2023/03/13 05:10:54;;;;;;;;;;;;;;;;;;2054893;28;20282;-87
2023/03/13 05:11:55;;;;;;;;;;;;;;;;;;1712628;28;10001354;-88
2023/03/13 05:12:55;;;;;;;;;;;;;;;;;;2058447;28;20385;-87
2023/03/13 05:13:55;;;;;;;;;;;;;;;;;;2063363;28;19918;-87
2023/03/13 05:14:55;;;;;;;;;;;;;;;;;;2066273;28;19921;-87
2023/03/13 05:15:56;;;;;;;;;;;;;;;;;;2062699;28;20342;-87
2023/03/13 05:16:56;;;;;;;;;;;;;;;;;;2057812;28;19933;-87
2023/03/13 05:17:56;;;;;;;;;;;;;;;;;;2057122;28;19951;-87
2023/03/13 05:18:56;;;;;;;;;;;;;;;;;;2055514;28;19984;-86
2023/03/13 05:19:57;;;;;;;;;;;;;;;;;;2062916;28;19910;-87
2023/03/13 05:20:57;;;;;;;;;;;;;;;;;;2071198;28;19925;-87
2023/03/13 05:21:57;;;;;;;;;;;;;;;;;;2054902;28;19945;-87
2023/03/13 05:22:57;;;;;;;;;;;;;;;;;;2054609;28;19922;-87
2023/03/13 05:23:58;;;;;;;;;;;;;;;;;;2055494;28;19920;-87
2023/03/13 05:24:58;;;;;;;;;;;;;;;;;;2054574;28;19910;-87
2023/03/13 05:25:59;;;;;;;;;;;;;;;;;;2054838;28;19980;-86
2023/03/13 05:26:59;;;;;;;;;;;;;;;;;;2055322;28;19997;-86
2023/03/13 05:27:59;;;;;;;;;;;;;;;;;;2055343;28;19910;-85
2023/03/13 05:28:59;;;;;;;;;;;;;;;;;;2054518;28;19910;-86
2023/03/13 05:30:00;;;;;;;;;;;;;;;;;;2054655;28;20134;-87
2023/03/13 05:31:00;;;;;;;;;;;;;;;;;;2054761;28;19914;-87
2023/03/13 05:32:00;;;;;;;;;;;;;;;;;;2063392;28;19905;-87
2023/03/13 05:33:01;;;;;;;;;;;;;;;;;;2065452;28;19925;-87
2023/03/13 05:34:01;;;;;;;;;;;;;;;;;;2065524;28;19918;-87
2023/03/13 05:35:01;;;;;;;;;;;;;;;;;;2066723;28;20343;-87
2023/03/13 05:36:01;;;;;;;;;;;;;;;;;;2065689;28;19917;-86
2023/03/13 05:37:02;;;;;;;;;;;;;;;;;;2055509;28;19973;-86
2023/03/13 05:38:02;;;;;;;;;;;;;;;;;;2055518;28;19941;-85
2023/03/13 05:39:02;;;;;;;;;;;;;;;;;;2054848;28;19914;-85
2023/03/13 05:40:03;;;;;;;;;;;;;;;;;;2054597;28;19910;-87
2023/03/13 05:41:03;;;;;;;;;;;;;;;;;;2055455;28;19910;-87
2023/03/13 05:42:03;;;;;;;;;;;;;;;;;;2054982;28;19910;-86
2023/03/13 05:43:04;;;;;;;;;;;;;;;;;;2061385;28;19913;-85
2023/03/13 05:44:04;;;;;;;;;;;;;;;;;;2055497;28;20245;-87
2023/03/13 05:45:05;;;;;;;;;;;;;;;;;;2054680;28;19910;-87
2023/03/13 05:46:05;;;;;;;;;;;;;;;;;;2046589;29;20389;-87
2023/03/13 05:47:05;;;;;;;;;;;;;;;;;;2054627;28;19914;-87
2023/03/13 05:48:06;;;;;;;;;;;;;;;;;;2055379;28;20329;-87
2023/03/13 05:49:07;;;;;;;;;;;;;;;;;;2054724;28;19922;-87
2023/03/13 05:50:07;;;;;;;;;;;;;;;;;;2054477;28;19924;-86
2023/03/13 05:51:07;;;;;;;;;;;;;;;;;;2070743;28;20111;-87
2023/03/13 05:52:08;;;;;;;;;;;;;;;;;;2062558;28;19925;-86
2023/03/13 05:53:26;;;;;;;;;;;;;;;;;;2054626;28;19941;-86
2023/03/13 05:54:26;;;;;;;;;;;;;;;;;;2055097;28;19914;-87
2023/03/13 05:55:29;;;;;;;;;;;;;;;;;;2055007;28;19910;-85
2023/03/13 05:56:29;;;;;;;;;;;;;;;;;;2054227;28;20554;-86
2023/03/13 05:57:32;;;;;;;;;;;;;;;;;;2054319;28;19921;-85
2023/03/13 05:58:33;;;;;;;;;;;;;;;;;;2070390;28;19935;-85
2023/03/13 05:59:33;;;;;;;;;;;;;;;;;;2062168;28;19953;-86
2023/03/13 06:00:34;;;;;;;;;;;;;;;;;;2054282;28;20000;-86
2023/03/13 06:01:34;;;;;;;;;;;;;;;;;;2055295;28;20310;-85
2023/03/13 06:02:34;;;;;;;;;;;;;;;;;;2055050;28;19997;-86
2023/03/13 06:03:35;;;;;;;;;;;;;;;;;;2054336;28;20337;-88
2023/03/13 06:04:35;;;;;;;;;;;;;;;;;;2054431;28;19921;-88
2023/03/13 06:05:35;;;;;;;;;;;;;;;;;;2055578;28;19910;-87
2023/03/13 06:06:36;;;;;;;;;;;;;;;;;;2054990;28;20337;-88
2023/03/13 06:07:36;;;;;;;;;;;;;;;;;;2055862;28;19992;-88
2023/03/13 06:08:36;;;;;;;;;;;;;;;;;;2055835;28;20026;-88
2023/03/13 06:09:36;;;;;;;;;;;;;;;;;;2055309;28;19988;-87
2023/03/13 06:10:37;;;;;;;;;;;;;;;;;;2054545;28;20548;-88
2023/03/13 06:11:37;;;;;;;;;;;;;;;;;;2054576;28;19993;-88
2023/03/13 06:12:37;;;;;;;;;;;;;;;;;;2054591;28;20449;-88
2023/03/13 06:13:38;;;;;;;;;;;;;;;;;;2054417;28;20091;-87
2023/03/13 06:14:38;;;;;;;;;;;;;;;;;;2062492;28;20016;-88
2023/03/13 06:15:39;;;;;;;;;;;;;;;;;;2070584;28;20470;-87
2023/03/13 06:16:40;;;;;;;;;;;;;;;;;;2061927;28;19944;-86
2023/03/13 06:17:40;;;;;;;;;;;;;;;;;;2054397;28;20362;-87
2023/03/13 06:18:40;;;;;;;;;;;;;;;;;;2062516;28;19953;-87
2023/03/13 06:19:41;;;;;;;;;;;;;;;;;;2054951;28;19953;-87
2023/03/13 06:20:41;;;;;;;;;;;;;;;;;;2054209;28;20346;-87
2023/03/13 06:21:41;;;;;;;;;;;;;;;;;;2054063;28;20368;-87
2023/03/13 06:22:42;;;;;;;;;;;;;;;;;;2054152;28;19937;-87
2023/03/13 06:23:42;;;;;;;;;;;;;;;;;;2054168;28;19915;-87
2023/03/13 06:24:47;;;;;;;;;;;;;;;;;;2054035;28;20427;-87
2023/03/13 06:25:48;;;;;;;;;;;;;;;;;;2055678;28;19910;-87
2023/03/13 06:26:48;;;;;;;;;;;;;;;;;;2054167;28;20004;-87
2023/03/13 06:27:49;;;;;;;;;;;;;;;;;;2054123;28;19980;-87
2023/03/13 06:28:49;;;;;;;;;;;;;;;;;;2054188;28;20626;-87
2023/03/13 06:29:49;;;;;;;;;;;;;;;;;;2054768;28;19928;-88
2023/03/13 06:30:49;;;;;;;;;;;;;;;;;;2053885;28;20202;-88
2023/03/13 06:31:50;;;;;;;;;;;;;;;;;;2054126;28;20274;-88
2023/03/13 06:32:50;;;;;;;;;;;;;;;;;;2053740;28;20063;-88
2023/03/13 06:33:54;;;;;;;;;;;;;;;;;;2064092;28;20230;-86
2023/03/13 06:34:54;;;;;;;;;;;;;;;;;;2074595;28;19909;-86
2023/03/13 06:35:54;;;;;;;;;;;;;;;;;;2055941;28;19910;-86
2023/03/13 06:36:57;;;;;;;;;;;;;;;;;;2054404;28;20155;-87
2023/03/13 06:37:57;;;;;;;;;;;;;;;;;;2054292;28;20344;-87
2023/03/13 06:38:57;;;;;;;;;;;;;;;;;;2055294;28;19921;-88
2023/03/13 06:39:58;;;;;;;;;;;;;;;;;;2055269;28;20404;-87
2023/03/13 06:40:58;;;;;;;;;;;;;;;;;;2070385;28;19932;-87
2023/03/13 06:41:58;;;;;;;;;;;;;;;;;;2070734;28;19909;-87
2023/03/13 06:42:58;;;;;;;;;;;;;;;;;;2055170;28;20028;-87
2023/03/13 06:43:59;;;;;;;;;;;;;;;;;;2070525;28;19952;-86
2023/03/13 06:44:59;;;;;;;;;;;;;;;;;;2070324;28;19913;-87
2023/03/13 06:46:04;;;;;;;;;;;;;;;;;;2054404;28;19914;-87
2023/03/13 06:47:04;;;;;;;;;;;;;;;;;;2054140;28;19936;-87
2023/03/13 06:48:04;;;;;;;;;;;;;;;;;;2062187;28;19965;-88
2023/03/13 06:49:04;;;;;;;;;;;;;;;;;;2062030;28;19985;-88
2023/03/13 06:50:05;;;;;;;;;;;;;;;;;;2054517;28;19914;-88
2023/03/13 06:51:09;;;;;;;;;;;;;;;;;;2056350;28;20550;-86
2023/03/13 06:52:10;;;;;;;;;;;;;;;;;;2054209;28;19929;-86
2023/03/13 06:53:15;;;;;;;;;;;;;;;;;;2062458;28;19909;-86
2023/03/13 06:54:15;;;;;;;;;;;;;;;;;;2055109;28;19910;-86
2023/03/13 06:55:16;;;;;;;;;;;;;;;;;;2054404;28;20452;-87